createdAt,value
2022-12-24T00:01:01.018Z,4.00
2022-12-24T00:03:28.155Z,3.50
2022-12-24T00:05:54.934Z,3.57
2022-12-24T00:08:21.984Z,3.23
2022-12-24T00:10:51.397Z,4.67
2022-12-24T00:13:18.332Z,3.30
2022-12-24T00:15:45.375Z,4.43
2022-12-24T00:18:12.116Z,3.43
2022-12-24T00:20:38.906Z,3.30
2022-12-24T00:23:05.560Z,3.93
2022-12-24T00:25:32.158Z,4.70
2022-12-24T00:27:58.945Z,7.27
2022-12-24T00:30:25.737Z,3.70
2022-12-24T00:32:52.397Z,4.50
2022-12-24T00:35:20.529Z,3.50
2022-12-24T00:37:48.913Z,3.80
2022-12-24T00:40:16.992Z,4.57
2022-12-24T00:42:47.578Z,3.77
2022-12-24T00:45:14.375Z,3.57
2022-12-24T00:47:41.259Z,3.40
2022-12-24T00:50:08.742Z,4.17
2022-12-24T00:52:35.625Z,5.50
2022-12-24T00:55:02.474Z,3.70
2022-12-24T00:57:30.472Z,3.20
2022-12-24T00:59:57.076Z,4.07
2022-12-24T01:02:24.104Z,3.77
2022-12-24T01:05:10.131Z,3.40
2022-12-24T01:07:42.195Z,4.30
2022-12-24T01:10:09.452Z,4.37
2022-12-24T01:12:36.501Z,3.33
2022-12-24T01:15:04.483Z,3.37
2022-12-24T01:17:33.547Z,3.57
2022-12-24T01:20:00.394Z,3.73
2022-12-24T01:22:27.185Z,3.77
2022-12-24T01:24:53.883Z,2.93
2022-12-24T01:27:20.618Z,3.40
2022-12-24T01:29:47.276Z,3.30
2022-12-24T01:32:14.081Z,4.43
2022-12-24T01:34:40.908Z,3.87
2022-12-24T01:37:07.531Z,4.10
2022-12-24T01:39:34.476Z,2.63
2022-12-24T01:42:19.995Z,3.27
2022-12-24T01:44:51.307Z,2.40
2022-12-24T01:47:22.377Z,4.83
2022-12-24T01:49:56.343Z,2.80
2022-12-24T01:52:29.427Z,2.77
2022-12-24T01:55:05.018Z,3.37
2022-12-24T01:57:54.907Z,3.80
2022-12-24T02:00:22.098Z,3.13
2022-12-24T02:02:52.655Z,3.40
2022-12-24T02:05:26.191Z,3.57
2022-12-24T02:07:53.006Z,4.00
2022-12-24T02:10:19.708Z,4.27
2022-12-24T02:12:47.272Z,3.10
2022-12-24T02:15:17.466Z,3.47
2022-12-24T02:17:51.025Z,3.40
2022-12-24T02:20:53.784Z,4.43
2022-12-24T02:23:57.404Z,5.30
2022-12-24T02:27:11.912Z,3.83
2022-12-24T02:30:03.937Z,4.53
2022-12-24T02:32:54.063Z,5.00
2022-12-24T02:35:53.714Z,4.00
2022-12-24T02:38:32.278Z,3.47
2022-12-24T02:41:05.833Z,3.93
2022-12-24T02:43:36.885Z,3.20
2022-12-24T02:46:08.983Z,3.27
2022-12-24T02:48:38.489Z,3.83
2022-12-24T02:51:09.243Z,4.13
2022-12-24T02:53:36.703Z,3.83
2022-12-24T02:56:25.242Z,3.27
2022-12-24T02:59:03.293Z,3.40
2022-12-24T03:02:03.489Z,2.60
2022-12-24T03:05:04.684Z,2.97
2022-12-24T03:07:37.939Z,2.70
2022-12-24T03:10:29.073Z,2.83
2022-12-24T03:13:06.644Z,2.93
2022-12-24T03:15:34.144Z,2.53
2022-12-24T03:18:03.308Z,2.73
2022-12-24T03:20:36.855Z,3.63
2022-12-24T03:23:04.641Z,2.93
2022-12-24T03:25:33.406Z,3.00
2022-12-24T03:28:03.560Z,2.90
2022-12-24T03:30:30.882Z,3.70
2022-12-24T03:32:57.569Z,2.53
2022-12-24T03:35:24.295Z,3.10
2022-12-24T03:37:51.020Z,2.80
2022-12-24T03:40:17.964Z,2.70
2022-12-24T03:42:44.758Z,3.63
2022-12-24T03:45:11.494Z,2.23
2022-12-24T03:47:38.295Z,3.57
2022-12-24T03:50:06.457Z,2.93
2022-12-24T03:52:33.066Z,2.87
2022-12-24T03:54:59.857Z,2.50
2022-12-24T03:57:26.517Z,2.47
2022-12-24T03:59:53.244Z,2.57
2022-12-24T04:02:20.055Z,2.63
2022-12-24T04:04:47.087Z,3.17
2022-12-24T04:07:13.812Z,4.10
2022-12-24T04:09:43.345Z,2.90
2022-12-24T04:12:11.144Z,3.03
2022-12-24T04:14:38.225Z,3.23
2022-12-24T04:17:06.175Z,2.90
2022-12-24T04:19:32.910Z,2.80
2022-12-24T04:21:59.533Z,2.90
2022-12-24T04:24:26.147Z,3.03
2022-12-24T04:26:52.712Z,3.10
2022-12-24T04:29:19.438Z,2.53
2022-12-24T04:31:46.163Z,2.70
2022-12-24T04:34:12.792Z,3.33
2022-12-24T04:36:39.408Z,3.33
2022-12-24T04:39:06.073Z,3.70
2022-12-24T04:41:32.821Z,2.47
2022-12-24T04:43:59.539Z,3.13
2022-12-24T04:46:30.506Z,3.07
2022-12-24T04:48:57.510Z,3.63
2022-12-24T04:51:26.127Z,3.50
2022-12-24T04:53:53.284Z,2.73
2022-12-24T04:56:22.277Z,3.23
2022-12-24T04:58:50.145Z,4.00
2022-12-24T05:01:23.372Z,3.53
2022-12-24T05:03:50.405Z,3.57
2022-12-24T05:06:19.935Z,3.20
2022-12-24T05:08:46.668Z,3.20
2022-12-24T05:11:16.734Z,3.17
2022-12-24T05:13:47.454Z,3.23
2022-12-24T05:16:16.561Z,3.80
2022-12-24T05:18:43.425Z,3.33
2022-12-24T05:21:11.649Z,3.50
2022-12-24T05:23:56.911Z,3.20
2022-12-24T05:26:32.829Z,3.13
2022-12-24T05:29:00.862Z,2.80
2022-12-24T05:31:29.990Z,2.90
2022-12-24T05:33:56.914Z,3.97
2022-12-24T05:36:23.909Z,3.47
2022-12-24T05:38:51.283Z,3.03
2022-12-24T05:41:18.900Z,3.17
2022-12-24T05:43:45.678Z,4.30
2022-12-24T05:46:15.719Z,4.03
2022-12-24T05:48:42.460Z,3.00
2022-12-24T05:51:11.272Z,4.57
2022-12-24T05:53:38.848Z,3.37
2022-12-24T05:56:07.553Z,3.20
2022-12-24T05:58:34.514Z,3.97
2022-12-24T06:01:03.400Z,3.40
2022-12-24T06:03:30.799Z,3.63
2022-12-24T06:06:02.350Z,3.80
2022-12-24T06:08:29.865Z,3.17
2022-12-24T06:10:58.151Z,3.73
2022-12-24T06:13:25.767Z,3.30
2022-12-24T06:15:56.796Z,3.80
2022-12-24T06:18:23.923Z,3.40
2022-12-24T06:20:52.070Z,3.03
2022-12-24T06:23:19.202Z,3.87
2022-12-24T06:25:46.662Z,3.30
2022-12-24T06:28:13.763Z,3.60
2022-12-24T06:30:41.221Z,3.53
2022-12-24T06:33:08.286Z,3.40
2022-12-24T06:35:34.923Z,3.33
2022-12-24T06:38:01.544Z,3.50
2022-12-24T06:40:28.688Z,4.17
2022-12-24T06:42:55.363Z,3.57
2022-12-24T06:45:21.969Z,3.27
2022-12-24T06:47:48.528Z,3.57
2022-12-24T06:50:15.185Z,3.63
2022-12-24T06:52:41.993Z,2.83
2022-12-24T06:55:09.055Z,3.77
2022-12-24T06:57:35.650Z,3.47
2022-12-24T07:00:02.217Z,4.30
2022-12-24T07:02:31.168Z,3.80
2022-12-24T07:04:57.877Z,3.50
2022-12-24T07:07:24.571Z,4.20
2022-12-24T07:09:51.405Z,2.87
2022-12-24T07:12:18.022Z,3.80
2022-12-24T07:14:44.594Z,3.50
2022-12-24T07:17:11.354Z,3.43
2022-12-24T07:19:38.086Z,3.83
2022-12-24T07:22:07.736Z,3.50
2022-12-24T07:24:36.940Z,4.47
2022-12-24T07:27:04.628Z,3.70
2022-12-24T07:29:31.436Z,4.57
2022-12-24T07:31:58.119Z,3.40
2022-12-24T07:34:24.813Z,4.00
2022-12-24T07:36:51.600Z,3.73
2022-12-24T07:39:18.269Z,3.90
2022-12-24T07:41:45.034Z,3.47
2022-12-24T07:44:14.798Z,4.77
2022-12-24T07:46:41.676Z,3.50
2022-12-24T07:49:08.322Z,3.50
2022-12-24T07:51:34.988Z,3.50
2022-12-24T07:54:01.627Z,3.87
2022-12-24T07:56:28.606Z,3.17
2022-12-24T07:58:55.263Z,4.20
2022-12-24T08:01:22.016Z,4.13
2022-12-24T08:03:51.292Z,3.73
2022-12-24T08:06:18.076Z,3.90
2022-12-24T08:08:44.720Z,3.77
2022-12-24T08:11:12.199Z,3.77
2022-12-24T08:13:38.889Z,3.50
2022-12-24T08:16:06.229Z,3.43
2022-12-24T08:18:33.686Z,3.67
2022-12-24T08:21:00.274Z,3.23
2022-12-24T08:23:26.923Z,3.30
2022-12-24T08:25:53.519Z,3.60
2022-12-24T08:28:20.963Z,4.60
2022-12-24T08:30:50.080Z,3.40
2022-12-24T08:33:17.154Z,4.63
2022-12-24T08:35:55.490Z,3.90
2022-12-24T08:38:22.499Z,4.57
2022-12-24T08:40:50.416Z,4.00
2022-12-24T08:43:18.062Z,3.83
2022-12-24T08:45:46.239Z,4.50
2022-12-24T08:48:13.080Z,4.10
2022-12-24T08:50:40.984Z,3.70
2022-12-24T08:53:09.041Z,4.20
2022-12-24T08:55:35.931Z,4.70
2022-12-24T08:58:02.553Z,4.93
2022-12-24T09:00:29.279Z,5.37
2022-12-24T09:02:56.875Z,3.37
2022-12-24T09:05:23.689Z,3.50
2022-12-24T09:07:50.307Z,4.10
2022-12-24T09:10:17.136Z,3.67
2022-12-24T09:12:43.801Z,4.23
2022-12-24T09:15:11.010Z,3.67
2022-12-24T09:17:37.868Z,5.93
2022-12-24T09:20:06.859Z,4.27
2022-12-24T09:22:38.550Z,4.00
2022-12-24T09:25:06.293Z,3.70
2022-12-24T09:27:32.978Z,4.47
2022-12-24T09:29:59.637Z,3.57
2022-12-24T09:32:26.376Z,3.57
2022-12-24T09:34:52.997Z,3.23
2022-12-24T09:37:19.650Z,4.07
2022-12-24T09:39:46.278Z,3.97
2022-12-24T09:42:45.898Z,3.57
2022-12-24T09:45:28.334Z,3.80
2022-12-24T09:48:04.352Z,3.67
2022-12-24T09:51:09.778Z,3.67
2022-12-24T09:53:50.296Z,3.10
2022-12-24T09:56:40.642Z,3.70
2022-12-24T09:59:14.572Z,3.97
2022-12-24T10:01:41.403Z,4.23
2022-12-24T10:04:19.596Z,3.83
2022-12-24T10:06:51.352Z,3.77
2022-12-24T10:09:37.064Z,4.17
2022-12-24T10:12:17.201Z,3.87
2022-12-24T10:15:05.745Z,4.70
2022-12-24T10:17:40.902Z,4.70
2022-12-24T10:20:47.404Z,4.07
2022-12-24T10:23:26.471Z,3.60
2022-12-24T10:26:11.002Z,3.97
2022-12-24T10:28:44.476Z,4.17
2022-12-24T10:31:11.750Z,3.90
2022-12-24T10:33:43.235Z,4.37
2022-12-24T10:36:18.528Z,4.57
2022-12-24T10:38:46.058Z,4.77
2022-12-24T10:41:14.243Z,4.73
2022-12-24T10:43:44.848Z,3.77
2022-12-24T10:46:23.145Z,4.33
2022-12-24T10:49:05.520Z,4.23
2022-12-24T10:51:47.653Z,4.33
2022-12-24T10:54:22.778Z,4.40
2022-12-24T10:57:02.802Z,3.53
2022-12-24T10:59:43.439Z,3.73
2022-12-24T11:02:35.494Z,3.70
2022-12-24T11:05:05.486Z,4.50
2022-12-24T11:07:32.800Z,4.20
2022-12-24T11:10:05.392Z,3.47
2022-12-24T11:12:35.738Z,4.00
2022-12-24T11:15:24.397Z,3.23
2022-12-24T11:18:06.236Z,3.43
2022-12-24T11:20:35.039Z,4.60
2022-12-24T11:23:03.253Z,4.23
2022-12-24T11:25:32.158Z,3.67
2022-12-24T11:28:24.003Z,4.27
2022-12-24T11:31:01.416Z,3.67
2022-12-24T11:33:30.277Z,3.63
2022-12-24T11:36:06.618Z,4.33
2022-12-24T11:38:34.992Z,4.40
2022-12-24T11:41:08.130Z,4.50
2022-12-24T11:43:45.569Z,5.83
2022-12-24T11:46:13.889Z,4.60
2022-12-24T11:48:40.669Z,5.50
2022-12-24T11:51:20.545Z,5.70
2022-12-24T11:54:00.926Z,6.70
2022-12-24T11:56:44.973Z,5.37
2022-12-24T11:59:25.042Z,7.07
2022-12-24T12:01:58.465Z,8.23
2022-12-24T12:04:29.653Z,8.10
2022-12-24T12:07:15.429Z,4.40
2022-12-24T12:09:50.772Z,5.47
2022-12-24T12:12:37.957Z,5.00
2022-12-24T12:15:16.562Z,5.23
2022-12-24T12:18:11.868Z,5.77
2022-12-24T12:20:46.431Z,5.23
2022-12-24T12:23:30.542Z,5.17
2022-12-24T12:26:07.910Z,4.07
2022-12-24T12:29:17.003Z,4.70
2022-12-24T12:32:01.236Z,4.50
2022-12-24T12:34:36.108Z,4.40
2022-12-24T12:37:40.143Z,3.90
2022-12-24T12:40:17.678Z,4.23
2022-12-24T12:43:09.566Z,4.03
2022-12-24T12:45:55.260Z,4.23
2022-12-24T12:48:40.636Z,4.40
2022-12-24T12:51:32.517Z,4.17
2022-12-24T12:54:17.732Z,4.33
2022-12-24T12:56:52.119Z,4.60
2022-12-24T12:59:24.672Z,3.57
2022-12-24T13:02:09.789Z,4.97
2022-12-24T13:04:58.150Z,4.00
2022-12-24T13:07:38.389Z,4.90
2022-12-24T13:10:27.089Z,6.57
2022-12-24T13:13:20.675Z,6.40
2022-12-24T13:16:23.885Z,5.10
2022-12-24T13:18:56.321Z,4.07
2022-12-24T13:21:25.515Z,5.10
2022-12-24T13:24:06.291Z,4.43
2022-12-24T13:26:33.095Z,7.97
2022-12-24T13:29:40.256Z,6.70
2022-12-24T13:32:19.288Z,6.80
2022-12-24T13:34:53.375Z,5.10
2022-12-24T13:37:32.378Z,4.77
2022-12-24T13:40:08.570Z,5.23
2022-12-24T13:43:06.158Z,5.77
2022-12-24T13:45:38.859Z,6.60
2022-12-24T13:48:08.488Z,6.00
2022-12-24T13:50:36.948Z,10.33
2022-12-24T13:53:06.169Z,5.20
2022-12-24T13:55:34.234Z,5.57
2022-12-24T13:58:03.881Z,4.67
2022-12-24T14:00:36.541Z,4.10
2022-12-24T14:03:06.414Z,4.57
2022-12-24T14:05:46.483Z,4.37
2022-12-24T14:08:25.543Z,4.57
2022-12-24T14:11:00.931Z,5.73
2022-12-24T14:13:39.926Z,5.03
2022-12-24T14:16:15.931Z,4.03
2022-12-24T14:18:46.142Z,4.40
2022-12-24T14:21:21.806Z,3.67
2022-12-24T14:24:07.130Z,4.00
2022-12-24T14:26:43.985Z,3.90
2022-12-24T14:29:25.381Z,3.80
2022-12-24T14:31:58.345Z,4.73
2022-12-24T14:34:26.056Z,3.07
2022-12-24T14:36:55.818Z,4.00
2022-12-24T14:39:28.687Z,3.93
2022-12-24T14:42:17.740Z,4.30
2022-12-24T14:44:59.561Z,4.07
2022-12-24T14:47:40.322Z,3.77
2022-12-24T14:50:28.837Z,4.17
2022-12-24T14:53:25.348Z,3.93
2022-12-24T14:55:53.498Z,4.67
2022-12-24T14:58:28.584Z,4.80
2022-12-24T15:00:59.728Z,4.20
2022-12-24T15:03:29.733Z,3.33
2022-12-24T15:06:00.569Z,3.70
2022-12-24T15:08:45.733Z,4.17
2022-12-24T15:11:22.478Z,3.23
2022-12-24T15:13:55.790Z,4.23
2022-12-24T15:16:28.855Z,3.93
2022-12-24T15:19:00.782Z,3.57
2022-12-24T15:21:41.113Z,4.97
2022-12-24T15:24:32.290Z,7.40
2022-12-24T15:27:00.263Z,6.60
2022-12-24T15:29:29.431Z,5.60
2022-12-24T15:31:58.820Z,6.67
2022-12-24T15:34:44.137Z,5.63
2022-12-24T15:37:10.702Z,5.37
2022-12-24T15:39:39.373Z,10.47
2022-12-24T15:42:13.950Z,7.00
2022-12-24T15:44:55.525Z,10.40
2022-12-24T15:47:45.699Z,10.00
2022-12-24T15:50:33.004Z,5.60
2022-12-24T15:53:19.986Z,6.10
2022-12-24T15:56:12.920Z,4.60
2022-12-24T15:58:44.517Z,5.47
2022-12-24T16:01:16.266Z,4.30
2022-12-24T16:03:59.147Z,5.63
2022-12-24T16:06:28.300Z,4.20
2022-12-24T16:08:56.469Z,5.03
2022-12-24T16:11:35.060Z,4.57
2022-12-24T16:14:12.539Z,4.27
2022-12-24T16:16:41.902Z,4.10
2022-12-24T16:19:20.222Z,4.37
2022-12-24T16:21:53.426Z,3.97
2022-12-24T16:24:29.364Z,5.33
2022-12-24T16:26:56.855Z,4.70
2022-12-24T16:29:24.447Z,4.23
2022-12-24T16:31:54.310Z,5.03
2022-12-24T16:34:24.663Z,4.23
2022-12-24T16:36:51.299Z,4.23
2022-12-24T16:39:23.900Z,5.70
2022-12-24T16:42:14.856Z,5.40
2022-12-24T16:44:42.328Z,4.00
2022-12-24T16:47:22.705Z,5.17
2022-12-24T16:49:50.564Z,4.20
2022-12-24T16:52:23.469Z,5.10
2022-12-24T16:54:50.650Z,4.57
2022-12-24T16:57:18.230Z,4.23
2022-12-24T16:59:45.547Z,3.80
2022-12-24T17:02:17.784Z,4.17
2022-12-24T17:04:45.171Z,3.80
2022-12-24T17:07:16.616Z,4.43
2022-12-24T17:09:43.710Z,4.17
2022-12-24T17:12:10.736Z,4.73
2022-12-24T17:14:39.180Z,5.20
2022-12-24T17:17:05.945Z,4.00
2022-12-24T17:19:32.688Z,4.63
2022-12-24T17:21:59.423Z,5.27
2022-12-24T17:24:26.084Z,4.70
2022-12-24T17:26:52.727Z,5.00
2022-12-24T17:29:19.402Z,5.23
2022-12-24T17:31:46.179Z,4.10
2022-12-24T17:34:12.932Z,7.37
2022-12-24T17:36:40.143Z,7.43
2022-12-24T17:39:06.878Z,20.37
2022-12-24T17:41:33.552Z,10.30
2022-12-24T17:44:00.254Z,7.77
2022-12-24T17:46:26.979Z,6.37
2022-12-24T17:48:55.066Z,6.93
2022-12-24T17:51:23.426Z,7.50
2022-12-24T17:53:50.771Z,5.27
2022-12-24T17:56:17.863Z,6.23
2022-12-24T17:58:47.034Z,9.23
2022-12-24T18:01:17.581Z,10.13
2022-12-24T18:03:45.466Z,9.27
2022-12-24T18:06:13.016Z,8.50
2022-12-24T18:08:41.840Z,6.10
2022-12-24T18:11:29.671Z,7.47
2022-12-24T18:13:57.234Z,7.17
2022-12-24T18:16:27.159Z,6.50
2022-12-24T18:18:54.603Z,7.27
2022-12-24T18:21:24.418Z,7.80
2022-12-24T18:23:52.224Z,7.57
2022-12-24T18:26:19.997Z,6.90
2022-12-24T18:28:47.468Z,7.00
2022-12-24T18:31:20.625Z,6.77
2022-12-24T18:33:51.743Z,6.33
2022-12-24T18:36:19.609Z,6.33
2022-12-24T18:38:47.699Z,7.77
2022-12-24T18:41:18.077Z,7.47
2022-12-24T18:43:44.807Z,8.30
2022-12-24T18:46:13.919Z,7.60
2022-12-24T18:48:40.831Z,8.83
2022-12-24T18:51:09.207Z,8.37
2022-12-24T18:53:38.540Z,8.80
2022-12-24T18:56:14.252Z,8.93
2022-12-24T18:58:42.468Z,7.60
2022-12-24T19:01:15.398Z,8.10
2022-12-24T19:03:42.706Z,6.63
2022-12-24T19:06:11.058Z,7.03
2022-12-24T19:08:57.016Z,6.30
2022-12-24T19:11:24.656Z,8.30
2022-12-24T19:13:52.908Z,6.60
2022-12-24T19:16:20.720Z,7.00
2022-12-24T19:18:48.944Z,7.17
2022-12-24T19:21:20.404Z,5.90
2022-12-24T19:23:51.732Z,5.53
2022-12-24T19:26:19.908Z,6.37
2022-12-24T19:28:50.182Z,6.10
2022-12-24T19:31:22.892Z,5.90
2022-12-24T19:33:51.895Z,6.20
2022-12-24T19:36:21.507Z,6.37
2022-12-24T19:38:48.579Z,5.97
2022-12-24T19:41:19.763Z,7.33
2022-12-24T19:43:51.399Z,6.30
2022-12-24T19:46:24.574Z,6.77
2022-12-24T19:48:54.041Z,6.13
2022-12-24T19:51:21.754Z,6.37
2022-12-24T19:53:49.561Z,5.67
2022-12-24T19:56:20.883Z,6.03
2022-12-24T19:58:48.712Z,6.20
2022-12-24T20:01:21.429Z,5.97
2022-12-24T20:03:49.920Z,6.63
2022-12-24T20:06:21.926Z,6.17
2022-12-24T20:08:49.276Z,5.33
2022-12-24T20:11:20.111Z,5.80
2022-12-24T20:13:47.833Z,5.57
2022-12-24T20:16:20.418Z,5.03
2022-12-24T20:18:54.942Z,19.47
2022-12-24T20:21:23.014Z,10.63
2022-12-24T20:23:49.864Z,9.27
2022-12-24T20:26:19.501Z,13.30
2022-12-24T20:28:47.009Z,12.13
2022-12-24T20:31:30.906Z,9.53
2022-12-24T20:34:00.294Z,8.27
2022-12-24T20:36:29.038Z,8.23
2022-12-24T20:38:58.157Z,36.07
2022-12-24T20:41:26.633Z,37.30
2022-12-24T20:43:53.641Z,18.00
2022-12-24T20:46:23.075Z,15.93
2022-12-24T20:48:50.477Z,19.67
2022-12-24T20:51:26.384Z,8.87
2022-12-24T20:53:55.111Z,8.50
2022-12-24T20:56:22.841Z,9.07
2022-12-24T20:58:50.288Z,6.87
2022-12-24T21:01:26.458Z,8.50
2022-12-24T21:03:55.488Z,6.10
2022-12-24T21:06:25.695Z,8.73
2022-12-24T21:08:53.628Z,8.73
2022-12-24T21:11:41.015Z,6.63
2022-12-24T21:14:10.122Z,7.60
2022-12-24T21:16:42.170Z,6.50
2022-12-24T21:19:14.607Z,6.73
2022-12-24T21:21:42.549Z,8.17
2022-12-24T21:24:10.737Z,8.67
2022-12-24T21:26:38.344Z,5.77
2022-12-24T21:29:08.541Z,6.30
2022-12-24T21:31:37.040Z,6.47
2022-12-24T21:34:04.615Z,8.27
2022-12-24T21:36:31.705Z,7.83
2022-12-24T21:39:00.143Z,7.10
2022-12-24T21:41:27.450Z,7.00
2022-12-24T21:44:00.595Z,6.17
2022-12-24T21:46:30.518Z,7.20
2022-12-24T21:49:15.863Z,6.73
2022-12-24T21:51:44.751Z,6.57
2022-12-24T21:54:23.727Z,7.07
2022-12-24T21:57:10.244Z,5.57
2022-12-24T21:59:37.402Z,5.70
2022-12-24T22:02:05.751Z,6.30
2022-12-24T22:04:33.323Z,6.37
2022-12-24T22:07:19.239Z,5.20
2022-12-24T22:10:04.595Z,4.77
2022-12-24T22:12:34.233Z,5.70
2022-12-24T22:15:05.801Z,6.07
2022-12-24T22:17:41.014Z,5.10
2022-12-24T22:20:08.511Z,4.90
2022-12-24T22:22:35.464Z,6.83
2022-12-24T22:25:02.663Z,6.80
2022-12-24T22:27:31.205Z,7.03
2022-12-24T22:29:59.312Z,7.60
2022-12-24T22:32:26.160Z,8.07
2022-12-24T22:34:55.315Z,12.50
2022-12-24T22:37:22.214Z,8.57
2022-12-24T22:39:49.081Z,7.40
2022-12-24T22:42:15.853Z,6.47
2022-12-24T22:44:42.797Z,6.70
2022-12-24T22:47:09.579Z,7.13
2022-12-24T22:49:38.285Z,17.70
2022-12-24T22:52:05.506Z,5.53
2022-12-24T22:54:32.983Z,7.77
2022-12-24T22:56:59.671Z,10.00
2022-12-24T22:59:26.500Z,7.93
2022-12-24T23:01:53.843Z,4.67
2022-12-24T23:04:20.789Z,7.80
2022-12-24T23:06:47.641Z,5.10
2022-12-24T23:09:15.884Z,4.47
2022-12-24T23:11:44.131Z,5.97
2022-12-24T23:14:35.442Z,6.33
2022-12-24T23:17:02.717Z,5.53
2022-12-24T23:19:31.882Z,5.27
2022-12-24T23:21:58.790Z,5.67
2022-12-24T23:24:27.362Z,4.93
2022-12-24T23:26:55.112Z,3.70
2022-12-24T23:29:22.026Z,4.57
2022-12-24T23:31:50.236Z,5.07
2022-12-24T23:34:23.116Z,3.93
2022-12-24T23:36:50.105Z,4.63
2022-12-24T23:39:23.313Z,3.53
2022-12-24T23:41:50.691Z,4.70
2022-12-24T23:44:19.835Z,11.63
2022-12-24T23:46:48.730Z,12.30
2022-12-24T23:49:15.628Z,5.60
2022-12-24T23:51:42.399Z,11.80
2022-12-24T23:54:09.193Z,12.47
2022-12-24T23:56:35.923Z,7.67
2022-12-24T23:59:03.743Z,12.87
